Terminal Aerodrome Forecast
Issued by NWS

Home | Current Version | Previous Version | Text Only | Print | Product List | Glossary On
Versions: 1 2 3 4 5 6 7 8 9 10 11 12 13
947
FTUS46 KPDT 290529
TAFBDN
TAF
KBDN 290529Z 2906/3006 34008KT P6SM FEW100 FEW250
     FM290800 VRB06KT P6SM FEW100 FEW250
     FM291900 25008KT P6SM FEW100
     FM292200 33009KT P6SM FEW100
     FM300500 VRB06KT P6SM SKC=

USA.gov is the U.S. government's official web portal to all federal, state and local government web resources and services.